Time;durP1;ratioP1;P1;durP2;ratioP2;P2;SDS_P1;SDS_P2;PMS_P1;PMS_P2;Temp;Humidity;BMP_temperature;BMP_pressure;BME280_temperature;BME280_humidity;BME280_pressure;Samples;Min_cycle;Max_cycle;Signal;HPM_P1;HPM_P2
2024/01/15 00:02:22;;;;;;;4.93;1.33;;;2.70;99.90;;;;;;5100643;28;20028;-34
2024/01/15 00:04:48;;;;;;;2.75;0.93;;;2.70;99.90;;;;;;5098695;28;20248;-34
2024/01/15 00:07:13;;;;;;;5.55;1.40;;;2.70;99.90;;;;;;5099468;28;20802;-34
2024/01/15 00:09:40;;;;;;;7.78;1.67;;;2.70;99.90;;;;;;5100781;28;20059;-34
2024/01/15 00:12:06;;;;;;;6.03;1.20;;;2.70;99.90;;;;;;5099233;28;20047;-34
2024/01/15 00:14:31;;;;;;;2.05;0.90;;;2.70;99.90;;;;;;5100587;28;20042;-35
2024/01/15 00:16:57;;;;;;;3.83;1.10;;;2.70;99.90;;;;;;5100056;28;20471;-35
2024/01/15 00:19:23;;;;;;;6.45;1.30;;;2.70;99.90;;;;;;5101137;28;20387;-35
2024/01/15 00:21:49;;;;;;;6.07;1.23;;;2.70;99.90;;;;;;5099701;28;20016;-35
2024/01/15 00:24:14;;;;;;;2.33;1.13;;;2.70;99.90;;;;;;5100088;28;20038;-35
2024/01/15 00:26:40;;;;;;;4.53;1.33;;;2.60;99.90;;;;;;5099408;28;20023;-35
2024/01/15 00:29:09;;;;;;;3.88;1.05;;;2.60;99.90;;;;;;5098433;28;20035;-35
2024/01/15 00:31:35;;;;;;;3.60;1.25;;;2.60;99.90;;;;;;5100316;28;20039;-35
2024/01/15 00:34:01;;;;;;;4.00;1.15;;;2.50;99.90;;;;;;5099507;28;20036;-35
2024/01/15 00:36:27;;;;;;;2.55;0.77;;;2.50;99.90;;;;;;5099573;28;20020;-35
2024/01/15 00:38:53;;;;;;;4.78;1.23;;;2.50;99.90;;;;;;5099280;28;20061;-35
2024/01/15 00:41:19;;;;;;;6.13;1.25;;;2.50;99.90;;;;;;5099590;28;20394;-39
2024/01/15 00:43:45;;;;;;;2.88;1.00;;;2.40;99.90;;;;;;5080488;28;20032;-35
2024/01/15 00:46:11;;;;;;;6.63;1.20;;;2.40;99.90;;;;;;5098986;28;20036;-35
2024/01/15 00:48:37;;;;;;;3.55;1.00;;;2.40;99.90;;;;;;5098869;28;20630;-35
2024/01/15 00:51:03;;;;;;;5.05;1.30;;;2.40;99.90;;;;;;5098995;28;20023;-34
2024/01/15 00:53:29;;;;;;;4.88;1.23;;;2.40;99.90;;;;;;5097670;28;20031;-35
2024/01/15 00:55:55;;;;;;;6.50;1.20;;;2.30;99.90;;;;;;5097651;28;20084;-35
2024/01/15 00:58:20;;;;;;;3.40;1.00;;;2.30;99.90;;;;;;5098018;28;20478;-35
2024/01/15 01:00:46;;;;;;;6.55;1.15;;;2.30;99.90;;;;;;5098562;28;20122;-35
2024/01/15 01:03:11;;;;;;;2.92;1.10;;;2.30;99.90;;;;;;5096768;28;20030;-35
2024/01/15 01:05:37;;;;;;;3.55;1.20;;;2.30;99.90;;;;;;5097731;28;20038;-35
2024/01/15 01:08:04;;;;;;;3.47;1.05;;;2.30;99.90;;;;;;5098423;28;20116;-35
2024/01/15 01:10:30;;;;;;;3.13;0.93;;;2.20;99.90;;;;;;5098374;28;20157;-36
2024/01/15 01:12:55;;;;;;;3.50;0.95;;;2.20;99.90;;;;;;5098667;28;20554;-32
2024/01/15 01:15:21;;;;;;;5.93;1.15;;;2.20;99.90;;;;;;5098987;28;20026;-34
2024/01/15 01:17:47;;;;;;;4.47;1.00;;;2.20;99.90;;;;;;5098283;28;20030;-33
2024/01/15 01:20:12;;;;;;;3.97;1.02;;;2.10;99.90;;;;;;5098608;28;20506;-34
2024/01/15 01:22:39;;;;;;;6.90;1.17;;;2.20;99.90;;;;;;5099672;28;20106;-35
2024/01/15 01:25:05;;;;;;;3.83;1.30;;;2.10;99.90;;;;;;5097565;28;20034;-35
2024/01/15 01:27:31;;;;;;;3.85;1.30;;;2.10;99.90;;;;;;5098706;28;20134;-35
2024/01/15 01:29:57;;;;;;;2.70;1.48;;;2.10;99.90;;;;;;5097928;28;20024;-35
2024/01/15 01:32:22;;;;;;;4.28;1.35;;;2.10;99.90;;;;;;5098725;28;20063;-35
2024/01/15 01:34:48;;;;;;;5.13;1.40;;;2.10;99.90;;;;;;5099827;28;20582;-35
2024/01/15 01:37:14;;;;;;;5.78;1.52;;;2.10;99.90;;;;;;5099242;28;20024;-35
2024/01/15 01:39:41;;;;;;;4.47;0.98;;;2.10;99.90;;;;;;5101842;28;20057;-35
2024/01/15 01:42:07;;;;;;;6.05;1.20;;;2.10;99.90;;;;;;5102189;28;20023;-35
2024/01/15 01:44:33;;;;;;;4.80;1.50;;;2.10;99.90;;;;;;5102577;28;20521;-34
2024/01/15 01:47:00;;;;;;;6.80;1.52;;;2.10;99.90;;;;;;5098563;28;20044;-35
2024/01/15 01:49:27;;;;;;;5.18;1.20;;;2.10;99.90;;;;;;5102163;28;20050;-35
2024/01/15 01:51:55;;;;;;;5.65;1.20;;;2.10;99.90;;;;;;5101399;28;20072;-35
2024/01/15 01:54:21;;;;;;;8.48;1.75;;;2.00;99.90;;;;;;5102023;28;20670;-35
2024/01/15 01:56:48;;;;;;;2.95;1.00;;;2.10;99.90;;;;;;5101432;28;20028;-35
2024/01/15 01:59:14;;;;;;;8.25;1.17;;;2.10;99.90;;;;;;5099681;28;20035;-34
2024/01/15 02:01:41;;;;;;;4.70;1.30;;;2.10;99.90;;;;;;5099939;28;20032;-35
2024/01/15 02:04:08;;;;;;;8.40;1.48;;;2.10;99.90;;;;;;5079512;28;20031;-35
2024/01/15 02:06:34;;;;;;;4.40;1.10;;;2.10;99.90;;;;;;5094153;28;20070;-35
2024/01/15 02:09:03;;;;;;;7.10;1.63;;;2.10;99.90;;;;;;5100006;28;20138;-35
2024/01/15 02:11:28;;;;;;;7.28;1.48;;;2.00;99.90;;;;;;5102056;28;20028;-35
2024/01/15 02:13:54;;;;;;;6.82;1.40;;;2.00;99.90;;;;;;5101576;28;20046;-35
2024/01/15 02:16:20;;;;;;;6.35;0.95;;;2.00;99.90;;;;;;5101487;28;20016;-38
2024/01/15 02:18:46;;;;;;;3.15;1.10;;;2.00;99.90;;;;;;5101923;28;20031;-35
2024/01/15 02:21:12;;;;;;;4.00;0.93;;;2.00;99.90;;;;;;5100755;28;20020;-35
2024/01/15 02:23:38;;;;;;;6.78;1.60;;;2.00;99.90;;;;;;5101550;28;20039;-36
2024/01/15 02:26:08;;;;;;;3.80;1.25;;;2.00;99.90;;;;;;5100902;28;20012;-36
2024/01/15 02:28:34;;;;;;;4.78;1.20;;;2.00;99.90;;;;;;5101357;28;20046;-35
2024/01/15 02:31:00;;;;;;;6.55;1.48;;;2.00;99.90;;;;;;5099904;28;20399;-35
2024/01/15 02:33:25;;;;;;;5.38;0.95;;;1.90;99.90;;;;;;5101144;28;20767;-34
2024/01/15 02:35:51;;;;;;;5.68;1.20;;;1.90;99.90;;;;;;5100609;28;20023;-34
2024/01/15 02:38:17;;;;;;;4.40;1.23;;;2.00;99.90;;;;;;5100638;28;20027;-34
2024/01/15 02:40:45;;;;;;;5.13;1.40;;;2.00;99.90;;;;;;5101120;28;20030;-35
2024/01/15 02:43:10;;;;;;;8.05;1.15;;;2.00;99.90;;;;;;5099434;28;20529;-34
2024/01/15 02:45:36;;;;;;;8.45;1.70;;;2.10;99.90;;;;;;5101711;28;20019;-35
2024/01/15 02:48:02;;;;;;;7.18;1.60;;;2.10;99.90;;;;;;5099827;28;20088;-35
2024/01/15 02:50:27;;;;;;;9.45;1.73;;;2.20;99.90;;;;;;5101944;28;20030;-34
2024/01/15 02:52:53;;;;;;;5.05;1.52;;;2.30;99.90;;;;;;5082366;28;20523;-35
2024/01/15 02:55:19;;;;;;;6.20;2.28;;;2.30;99.90;;;;;;5100282;28;20968;-35
2024/01/15 02:57:44;;;;;;;8.52;1.40;;;2.40;99.90;;;;;;5100861;28;20031;-35
2024/01/15 03:00:11;;;;;;;8.57;1.58;;;2.40;99.90;;;;;;5100605;28;20050;-35
2024/01/15 03:02:45;;;;;;;5.13;1.05;;;2.40;99.90;;;;;;5100324;28;20482;-35
2024/01/15 03:05:10;;;;;;;4.32;1.15;;;2.40;99.90;;;;;;5100684;28;20036;-34
2024/01/15 03:07:36;;;;;;;4.22;1.40;;;2.30;99.90;;;;;;5100517;28;20039;-34
2024/01/15 03:10:02;;;;;;;5.68;1.15;;;2.30;99.90;;;;;;5096287;28;20044;-34
2024/01/15 03:12:28;;;;;;;7.32;1.27;;;2.20;99.90;;;;;;5100277;28;20047;-34
2024/01/15 03:14:53;;;;;;;8.50;1.30;;;2.20;99.90;;;;;;5100958;28;20031;-34
2024/01/15 03:17:19;;;;;;;13.05;1.30;;;2.20;99.90;;;;;;5100009;28;20024;-34
2024/01/15 03:19:45;;;;;;;6.65;1.42;;;2.20;99.90;;;;;;5099558;28;20022;-34
2024/01/15 03:22:10;;;;;;;10.00;1.30;;;2.10;99.90;;;;;;5100398;28;20028;-35
2024/01/15 03:24:36;;;;;;;4.30;0.98;;;2.10;99.90;;;;;;5100239;28;20107;-34
2024/01/15 03:27:02;;;;;;;8.75;1.48;;;2.10;99.90;;;;;;5100667;28;20024;-34
2024/01/15 03:29:27;;;;;;;7.47;1.15;;;2.00;99.90;;;;;;5099928;28;20023;-34
2024/01/15 03:31:53;;;;;;;8.70;1.20;;;2.00;99.90;;;;;;5099013;28;20473;-35
2024/01/15 03:34:19;;;;;;;3.13;0.60;;;2.00;99.90;;;;;;5100143;28;20027;-34
2024/01/15 03:36:44;;;;;;;7.70;1.08;;;2.00;99.90;;;;;;5100187;28;20209;-34
2024/01/15 03:39:10;;;;;;;4.05;1.05;;;1.90;99.90;;;;;;5098479;28;20031;-33
2024/01/15 03:41:36;;;;;;;4.00;1.02;;;2.00;99.90;;;;;;5081768;28;20020;-33
2024/01/15 03:44:01;;;;;;;3.63;0.80;;;2.00;99.90;;;;;;5099123;28;20043;-34
2024/01/15 03:46:27;;;;;;;3.00;0.82;;;2.00;99.90;;;;;;5100483;28;20162;-35
2024/01/15 03:48:53;;;;;;;6.95;1.15;;;1.90;99.90;;;;;;5100155;28;20030;-35
2024/01/15 03:51:19;;;;;;;5.88;1.15;;;1.90;99.90;;;;;;5099370;28;20104;-35
2024/01/15 03:53:44;;;;;;;4.88;0.80;;;1.90;99.90;;;;;;5099828;28;20677;-35
2024/01/15 03:56:11;;;;;;;7.03;0.90;;;2.00;99.90;;;;;;5099464;28;20364;-35
2024/01/15 03:58:37;;;;;;;5.90;1.60;;;1.90;99.90;;;;;;5100249;28;20584;-35
2024/01/15 04:01:03;;;;;;;4.40;1.20;;;2.00;99.90;;;;;;5099008;28;20023;-34
2024/01/15 04:03:30;;;;;;;5.70;1.08;;;2.00;99.90;;;;;;5099437;28;20057;-34
2024/01/15 04:05:55;;;;;;;4.43;0.90;;;2.10;99.90;;;;;;5098501;28;20393;-34
2024/01/15 04:08:21;;;;;;;6.43;0.82;;;2.10;99.90;;;;;;5100111;28;20047;-34
2024/01/15 04:10:46;;;;;;;5.40;0.98;;;2.10;99.90;;;;;;5099436;28;20247;-35
2024/01/15 04:13:12;;;;;;;5.28;1.08;;;2.10;99.90;;;;;;5098480;28;20035;-35
2024/01/15 04:15:37;;;;;;;3.58;1.00;;;2.10;99.90;;;;;;5099308;28;20023;-35
2024/01/15 04:18:06;;;;;;;1.92;0.88;;;2.10;99.90;;;;;;5099626;28;20027;-35
2024/01/15 04:20:31;;;;;;;3.20;0.90;;;2.10;99.90;;;;;;5098362;28;20459;-35
2024/01/15 04:22:57;;;;;;;6.78;1.33;;;2.10;99.90;;;;;;5099306;28;20031;-35
2024/01/15 04:25:23;;;;;;;2.92;0.93;;;2.10;99.90;;;;;;5099776;28;20023;-34
2024/01/15 04:27:48;;;;;;;6.00;1.00;;;2.10;99.90;;;;;;5098671;28;20282;-35
2024/01/15 04:30:14;;;;;;;1.30;0.60;;;2.10;99.90;;;;;;5099135;28;20939;-35
2024/01/15 04:32:40;;;;;;;3.88;1.10;;;2.10;99.90;;;;;;5098927;28;20554;-35
2024/01/15 04:35:05;;;;;;;4.43;1.23;;;2.10;99.90;;;;;;5098745;28;20027;-35
2024/01/15 04:37:31;;;;;;;7.53;1.38;;;2.10;99.90;;;;;;5099355;28;20015;-34
2024/01/15 04:39:57;;;;;;;4.75;1.30;;;2.10;99.90;;;;;;5099625;28;20026;-34
2024/01/15 04:42:23;;;;;;;10.55;1.08;;;2.00;99.90;;;;;;5098916;28;20023;-35
2024/01/15 04:44:49;;;;;;;1.30;0.88;;;2.00;99.90;;;;;;5099357;28;20486;-34
2024/01/15 04:47:14;;;;;;;4.38;1.10;;;2.00;99.90;;;;;;5099134;28;20391;-35
2024/01/15 04:49:40;;;;;;;4.07;1.10;;;2.00;99.90;;;;;;5099166;28;20561;-35
2024/01/15 04:52:05;;;;;;;10.25;1.55;;;1.90;99.90;;;;;;5098931;28;20115;-35
2024/01/15 04:54:31;;;;;;;5.88;1.52;;;1.90;99.90;;;;;;5099436;28;20096;-35
2024/01/15 04:56:57;;;;;;;11.10;1.63;;;1.90;99.90;;;;;;5096377;28;20043;-35
2024/01/15 04:59:23;;;;;;;5.15;1.20;;;1.90;99.90;;;;;;5098689;28;20040;-34
2024/01/15 05:01:49;;;;;;;7.72;1.75;;;1.90;99.90;;;;;;5098222;28;20118;-34
2024/01/15 05:04:14;;;;;;;7.75;1.40;;;1.90;99.90;;;;;;5098654;28;20035;-34
2024/01/15 05:06:40;;;;;;;8.65;1.30;;;1.90;99.90;;;;;;5099123;28;20023;-34
2024/01/15 05:09:05;;;;;;;4.75;1.63;;;1.90;99.90;;;;;;5097268;28;20044;-34
2024/01/15 05:11:31;;;;;;;6.22;1.30;;;1.90;99.90;;;;;;5099891;28;20055;-34
2024/01/15 05:13:57;;;;;;;6.30;1.70;;;1.90;99.90;;;;;;5101964;28;20042;-35
2024/01/15 05:16:22;;;;;;;8.80;1.30;;;1.90;99.90;;;;;;5102391;28;20024;-42
2024/01/15 05:18:48;;;;;;;7.82;1.40;;;1.90;99.90;;;;;;5102627;28;20038;-35
2024/01/15 05:21:13;;;;;;;8.38;1.10;;;1.90;99.90;;;;;;5102911;28;20769;-34
2024/01/15 05:23:39;;;;;;;11.02;1.20;;;1.90;99.90;;;;;;5102003;28;20388;-34
2024/01/15 05:26:04;;;;;;;4.65;1.17;;;1.90;99.90;;;;;;5102497;28;20035;-34
2024/01/15 05:28:30;;;;;;;5.45;1.13;;;1.90;99.90;;;;;;5102563;28;20028;-34
2024/01/15 05:30:56;;;;;;;8.30;1.45;;;1.90;99.90;;;;;;5101611;28;20459;-35
2024/01/15 05:33:25;;;;;;;5.85;1.23;;;1.90;99.90;;;;;;5102535;28;20093;-35
2024/01/15 05:35:53;;;;;;;7.75;1.60;;;2.00;99.90;;;;;;5102332;28;20058;-35
2024/01/15 05:38:19;;;;;;;5.50;1.50;;;1.90;99.90;;;;;;5101478;28;20035;-34
2024/01/15 05:40:45;;;;;;;4.22;1.00;;;2.00;99.90;;;;;;5103560;28;20080;-34
2024/01/15 05:43:10;;;;;;;5.72;1.15;;;2.00;99.90;;;;;;5102631;28;20058;-40
2024/01/15 05:45:38;;;;;;;6.43;1.10;;;2.00;99.90;;;;;;5102044;28;20455;-35
2024/01/15 05:48:04;;;;;;;5.18;1.48;;;2.10;99.90;;;;;;5103049;28;20055;-35
2024/01/15 05:50:42;;;;;;;8.27;1.73;;;2.10;99.90;;;;;;5103494;28;20124;-35
2024/01/15 05:53:08;;;;;;;3.58;1.50;;;2.10;99.90;;;;;;5101539;28;20036;-35
2024/01/15 05:55:34;;;;;;;5.28;1.23;;;2.10;99.90;;;;;;5102189;28;20027;-35
2024/01/15 05:58:00;;;;;;;6.88;1.42;;;2.10;99.90;;;;;;5084457;28;20031;-34
2024/01/15 06:00:26;;;;;;;5.35;2.05;;;2.10;99.90;;;;;;5102567;28;20628;-35
2024/01/15 06:02:51;;;;;;;5.68;1.30;;;2.20;99.90;;;;;;5102250;28;20069;-37
2024/01/15 06:05:17;;;;;;;5.05;1.75;;;2.20;99.90;;;;;;5101353;28;20016;-35
2024/01/15 06:07:42;;;;;;;3.58;1.65;;;2.20;99.90;;;;;;5102616;28;20032;-34
2024/01/15 06:10:09;;;;;;;3.28;1.50;;;2.20;99.90;;;;;;5101649;28;20132;-34
2024/01/15 06:12:35;;;;;;;3.88;1.50;;;2.30;99.90;;;;;;5102118;28;20031;-35
2024/01/15 06:15:00;;;;;;;5.47;1.73;;;2.30;99.90;;;;;;5101636;28;20030;-35
2024/01/15 06:17:26;;;;;;;2.80;1.20;;;2.30;99.90;;;;;;5102323;28;20019;-35
2024/01/15 06:19:51;;;;;;;3.83;1.20;;;2.30;99.90;;;;;;5100526;28;20035;-35
2024/01/15 06:22:17;;;;;;;2.40;1.13;;;2.30;99.90;;;;;;5101430;28;20109;-35
2024/01/15 06:24:43;;;;;;;4.13;1.25;;;2.30;99.90;;;;;;5100707;28;20076;-35
2024/01/15 06:27:11;;;;;;;2.83;1.05;;;2.40;99.90;;;;;;5100480;28;20483;-35
2024/01/15 06:29:38;;;;;;;3.30;1.20;;;2.40;99.90;;;;;;5101258;28;20024;-35
2024/01/15 06:32:04;;;;;;;5.90;1.23;;;2.40;99.90;;;;;;5101496;28;20023;-35
2024/01/15 06:34:30;;;;;;;5.30;1.33;;;2.40;99.90;;;;;;5100300;28;20023;-35
2024/01/15 06:36:55;;;;;;;3.83;1.48;;;2.40;99.90;;;;;;5100836;28;20069;-35
2024/01/15 06:39:21;;;;;;;6.35;1.33;;;2.40;99.90;;;;;;5101199;28;20031;-35
2024/01/15 06:41:47;;;;;;;3.50;1.50;;;2.40;99.90;;;;;;5100472;28;20023;-35
2024/01/15 06:44:12;;;;;;;1.40;1.00;;;2.40;99.90;;;;;;5099651;28;20027;-35
2024/01/15 06:46:45;;;;;;;2.45;1.20;;;2.40;99.90;;;;;;5099275;28;20858;-35
2024/01/15 06:49:11;;;;;;;2.20;1.00;;;2.40;99.90;;;;;;5100193;28;20053;-39
2024/01/15 06:51:38;;;;;;;1.55;0.82;;;2.40;99.90;;;;;;5100386;28;20024;-44
2024/01/15 06:54:04;;;;;;;1.85;0.90;;;2.30;99.90;;;;;;5099607;28;20105;-35
2024/01/15 06:56:30;;;;;;;0.85;0.70;;;2.30;99.90;;;;;;5098690;28;20019;-35
2024/01/15 06:58:55;;;;;;;1.02;0.63;;;2.30;99.90;;;;;;5099367;28;20024;-34
2024/01/15 07:01:21;;;;;;;1.67;0.90;;;2.20;99.90;;;;;;5098332;28;20633;-34
2024/01/15 07:03:47;;;;;;;1.98;1.25;;;2.20;99.90;;;;;;5100578;28;20051;-34
2024/01/15 07:06:12;;;;;;;1.92;1.45;;;2.20;99.90;;;;;;5098508;28;20069;-34
2024/01/15 07:08:39;;;;;;;4.03;1.98;;;2.20;99.90;;;;;;5099210;28;20039;-34
2024/01/15 07:11:05;;;;;;;5.75;2.78;;;2.20;99.90;;;;;;5099023;28;20019;-34
2024/01/15 07:13:31;;;;;;;3.78;3.10;;;2.20;99.90;;;;;;5100624;28;20038;-34
2024/01/15 07:15:57;;;;;;;7.07;4.22;;;2.10;99.90;;;;;;5098458;28;20012;-35
2024/01/15 07:18:23;;;;;;;3.47;3.17;;;2.10;99.90;;;;;;5100342;28;20520;-35
2024/01/15 07:20:49;;;;;;;5.05;3.78;;;2.10;99.90;;;;;;5099625;28;20024;-35
2024/01/15 07:23:14;;;;;;;4.88;3.47;;;2.10;99.90;;;;;;5098219;28;20135;-36
2024/01/15 07:25:40;;;;;;;4.13;3.67;;;2.10;99.90;;;;;;5098775;28;20019;-35
2024/01/15 07:28:06;;;;;;;4.30;3.90;;;2.10;99.90;;;;;;5097525;28;20130;-34
2024/01/15 07:30:31;;;;;;;3.80;3.40;;;2.10;99.90;;;;;;5098009;28;20051;-35
2024/01/15 07:32:57;;;;;;;4.20;3.60;;;2.10;99.90;;;;;;5098325;28;20035;-35
2024/01/15 07:35:23;;;;;;;6.40;4.85;;;2.10;99.90;;;;;;5098304;28;20019;-35
2024/01/15 07:37:48;;;;;;;6.03;4.50;;;2.10;99.90;;;;;;5099398;28;20112;-35
2024/01/15 07:40:14;;;;;;;6.45;5.13;;;2.10;99.90;;;;;;5099353;28;20023;-35
2024/01/15 07:42:42;;;;;;;5.45;4.95;;;2.10;99.90;;;;;;5100519;28;20030;-35
2024/01/15 07:45:08;;;;;;;4.80;4.30;;;2.10;99.90;;;;;;5099467;28;20473;-38
2024/01/15 07:47:34;;;;;;;4.60;4.20;;;2.10;99.90;;;;;;5100404;28;20626;-34
2024/01/15 07:49:59;;;;;;;4.30;3.90;;;2.10;99.90;;;;;;5097173;28;20520;-35
2024/01/15 07:52:25;;;;;;;5.05;4.57;;;2.10;99.90;;;;;;5099711;28;20032;-35
2024/01/15 07:54:50;;;;;;;5.13;4.63;;;2.10;99.90;;;;;;5100865;28;20077;-36
2024/01/15 07:57:16;;;;;;;6.20;5.60;;;2.10;99.90;;;;;;5100749;28;20676;-36
2024/01/15 07:59:41;;;;;;;6.57;5.43;;;2.10;99.90;;;;;;5100246;28;20062;-35
2024/01/15 08:02:07;;;;;;;5.32;4.82;;;2.10;99.90;;;;;;5099580;28;20039;-35
2024/01/15 08:04:32;;;;;;;4.40;4.00;;;2.10;99.90;;;;;;5100039;28;20028;-35
2024/01/15 08:06:58;;;;;;;4.75;3.47;;;2.10;99.90;;;;;;5100355;28;20039;-35
2024/01/15 08:09:24;;;;;;;3.97;3.58;;;2.10;99.90;;;;;;5100517;28;20047;-35
2024/01/15 08:11:49;;;;;;;3.50;3.20;;;2.10;99.90;;;;;;5100034;28;20946;-35
2024/01/15 08:14:15;;;;;;;4.40;3.70;;;2.10;99.90;;;;;;5099903;28;20035;-35
2024/01/15 08:16:43;;;;;;;3.15;2.85;;;2.10;99.90;;;;;;5100957;28;20035;-35
2024/01/15 08:19:09;;;;;;;3.30;3.00;;;2.10;99.90;;;;;;5099367;28;20499;-35
2024/01/15 08:21:34;;;;;;;2.40;2.20;;;2.10;99.90;;;;;;5100999;28;20024;-35
2024/01/15 08:24:02;;;;;;;2.55;2.33;;;2.10;99.90;;;;;;5100029;28;20034;-36
2024/01/15 08:26:30;;;;;;;2.28;2.08;;;2.20;99.90;;;;;;5100537;28;20027;-35
2024/01/15 08:28:56;;;;;;;2.50;2.30;;;2.20;99.90;;;;;;5100034;28;20088;-35
2024/01/15 08:31:22;;;;;;;3.88;2.00;;;2.20;99.90;;;;;;5100998;28;20027;-35
2024/01/15 08:33:48;;;;;;;2.70;2.22;;;2.20;99.90;;;;;;5099749;28;20044;-35
2024/01/15 08:36:18;;;;;;;2.67;2.22;;;2.20;99.90;;;;;;5099997;28;20413;-35
2024/01/15 08:38:44;;;;;;;3.30;2.13;;;2.20;99.90;;;;;;5101271;28;20433;-37
2024/01/15 08:41:10;;;;;;;2.65;2.28;;;2.20;99.90;;;;;;5099212;28;20114;-35
2024/01/15 08:43:39;;;;;;;2.75;2.25;;;2.20;99.90;;;;;;5100428;28;20037;-35
2024/01/15 08:46:05;;;;;;;2.25;2.00;;;2.20;99.90;;;;;;5100217;28;20510;-35
2024/01/15 08:48:30;;;;;;;3.33;2.60;;;2.10;99.90;;;;;;5104069;28;20031;-35
2024/01/15 08:50:56;;;;;;;3.15;2.10;;;2.10;99.90;;;;;;5104302;28;20057;-35
2024/01/15 08:53:22;;;;;;;3.83;2.67;;;2.10;99.90;;;;;;5104668;28;20039;-34
2024/01/15 08:55:48;;;;;;;2.90;2.58;;;2.10;99.90;;;;;;5104270;28;20031;-35
2024/01/15 08:58:13;;;;;;;7.03;2.70;;;2.10;99.90;;;;;;5104465;28;20028;-34
2024/01/15 09:00:39;;;;;;;4.10;2.70;;;2.10;99.90;;;;;;5104427;28;20031;-35
2024/01/15 09:03:05;;;;;;;3.38;2.00;;;2.10;99.90;;;;;;5103441;28;20034;-35
2024/01/15 09:05:34;;;;;;;3.20;2.70;;;2.20;99.90;;;;;;5103853;28;20023;-35
2024/01/15 09:08:00;;;;;;;3.40;2.42;;;2.20;99.90;;;;;;5102720;28;20039;-35
2024/01/15 09:10:25;;;;;;;3.47;2.40;;;2.20;99.90;;;;;;5103914;28;20100;-34
2024/01/15 09:12:51;;;;;;;4.80;2.35;;;2.20;99.90;;;;;;5104152;28;20962;-35
2024/01/15 09:15:16;;;;;;;3.30;2.10;;;2.20;99.90;;;;;;5102873;28;20024;-34
2024/01/15 09:17:42;;;;;;;4.57;2.38;;;2.20;99.90;;;;;;5102359;28;20040;-34
2024/01/15 09:20:10;;;;;;;5.47;2.80;;;2.20;99.90;;;;;;5101544;28;20035;-34
2024/01/15 09:22:41;;;;;;;6.70;3.20;;;2.30;99.90;;;;;;5102685;28;20070;-34
2024/01/15 09:25:08;;;;;;;5.40;3.78;;;2.30;99.90;;;;;;5103353;28;20028;-34
2024/01/15 09:27:34;;;;;;;6.97;4.50;;;2.30;99.90;;;;;;5104150;28;20027;-35
2024/01/15 09:29:59;;;;;;;5.22;3.83;;;2.30;99.90;;;;;;5101913;28;20042;-35
2024/01/15 09:32:25;;;;;;;5.80;3.75;;;2.30;99.90;;;;;;5102844;28;20054;-35
2024/01/15 09:34:50;;;;;;;3.40;3.10;;;2.30;99.90;;;;;;5103172;28;20055;-35
2024/01/15 09:37:16;;;;;;;5.85;3.88;;;2.30;99.90;;;;;;5102679;28;20482;-35
2024/01/15 09:39:41;;;;;;;5.03;3.55;;;2.30;99.90;;;;;;5103429;28;20034;-34
2024/01/15 09:42:08;;;;;;;6.63;3.90;;;2.40;99.90;;;;;;5101210;28;20035;-34
2024/01/15 09:44:34;;;;;;;8.13;3.28;;;2.40;99.90;;;;;;5103141;28;20035;-35
2024/01/15 09:47:00;;;;;;;6.70;3.33;;;2.50;99.90;;;;;;5103244;28;20015;-34
2024/01/15 09:49:26;;;;;;;3.80;2.67;;;2.60;99.90;;;;;;5103585;28;20796;-34
2024/01/15 09:51:54;;;;;;;2.95;2.50;;;2.60;99.90;;;;;;5101223;28;20023;-34
2024/01/15 09:54:23;;;;;;;2.58;2.10;;;2.60;99.90;;;;;;5100990;28;20039;-35
2024/01/15 09:56:49;;;;;;;5.72;1.85;;;2.60;99.90;;;;;;5102279;28;20030;-35
2024/01/15 09:59:18;;;;;;;3.13;1.50;;;2.60;99.90;;;;;;5099740;28;20020;-35
2024/01/15 10:01:44;;;;;;;4.15;1.40;;;2.50;99.90;;;;;;5102006;28;20030;-35
2024/01/15 10:04:12;;;;;;;2.97;1.75;;;2.50;99.90;;;;;;5102142;28;20207;-36
2024/01/15 10:06:39;;;;;;;2.08;1.33;;;2.40;99.90;;;;;;5103620;28;20015;-36
2024/01/15 10:09:05;;;;;;;2.40;1.48;;;2.30;99.90;;;;;;5103246;28;20495;-35
2024/01/15 10:11:31;;;;;;;4.70;1.50;;;2.30;99.90;;;;;;5102620;28;20475;-35
2024/01/15 10:13:57;;;;;;;3.53;1.35;;;2.30;99.90;;;;;;5102607;28;20043;-35
2024/01/15 10:16:23;;;;;;;1.55;1.40;;;2.40;99.90;;;;;;5102079;28;20428;-34
2024/01/15 10:18:49;;;;;;;2.95;1.48;;;2.40;99.90;;;;;;5102370;28;20024;-34
2024/01/15 10:21:16;;;;;;;1.73;1.30;;;2.40;99.90;;;;;;5102865;28;20028;-34
2024/01/15 10:23:42;;;;;;;2.65;1.42;;;2.40;99.90;;;;;;5102473;28;20092;-34
2024/01/15 10:26:08;;;;;;;4.05;1.80;;;2.50;99.90;;;;;;5102060;28;20020;-34
2024/01/15 10:28:33;;;;;;;4.68;1.95;;;2.60;99.90;;;;;;5102381;28;20036;-34
2024/01/15 10:31:00;;;;;;;2.67;1.77;;;2.70;99.90;;;;;;5101597;28;20028;-35
2024/01/15 10:33:26;;;;;;;2.80;1.48;;;2.80;99.90;;;;;;5102005;28;20123;-33
2024/01/15 10:36:00;;;;;;;4.43;1.50;;;2.80;99.90;;;;;;5102420;28;20350;-33
2024/01/15 10:38:27;;;;;;;4.82;1.95;;;2.80;99.90;;;;;;5102217;28;20053;-35
2024/01/15 10:40:53;;;;;;;4.63;2.88;;;2.80;99.90;;;;;;5101663;28;20026;-34
2024/01/15 10:43:19;;;;;;;7.43;2.80;;;2.80;99.90;;;;;;5101990;28;20035;-35
2024/01/15 10:45:46;;;;;;;5.70;2.70;;;2.80;99.90;;;;;;5102410;28;20127;-34
2024/01/15 10:48:12;;;;;;;3.60;2.40;;;2.90;99.90;;;;;;5100881;28;20363;-34
2024/01/15 10:50:38;;;;;;;4.32;2.95;;;2.90;99.90;;;;;;5102193;28;20024;-35
2024/01/15 10:53:05;;;;;;;5.10;2.42;;;3.00;99.90;;;;;;5101518;28;20082;-34
2024/01/15 10:55:33;;;;;;;3.40;2.38;;;3.10;99.90;;;;;;5102084;28;20055;-35
2024/01/15 10:57:59;;;;;;;4.88;3.03;;;3.10;99.90;;;;;;5101800;28;20016;-35
2024/01/15 11:00:26;;;;;;;7.13;3.28;;;3.10;99.90;;;;;;5100935;28;20027;-34
2024/01/15 11:02:55;;;;;;;6.90;3.08;;;3.10;99.90;;;;;;5101577;28;20019;-35
2024/01/15 11:05:22;;;;;;;3.90;2.58;;;3.10;99.90;;;;;;5102197;28;20034;-34
2024/01/15 11:07:49;;;;;;;3.55;2.28;;;3.00;99.90;;;;;;5099419;28;20527;-35
2024/01/15 11:10:37;;;;;;;3.05;2.20;;;2.90;99.90;;;;;;5099720;28;20073;-34
2024/01/15 11:13:05;;;;;;;5.57;2.80;;;2.80;99.90;;;;;;5100759;28;20081;-34
2024/01/15 11:15:30;;;;;;;4.93;2.25;;;2.80;99.90;;;;;;5099856;28;20031;-34
2024/01/15 11:18:01;;;;;;;5.38;2.13;;;2.80;99.90;;;;;;5100416;28;20584;-34
2024/01/15 11:20:27;;;;;;;8.00;2.25;;;2.70;99.90;;;;;;5100104;28;20458;-35
2024/01/15 11:22:52;;;;;;;5.90;2.45;;;2.70;99.90;;;;;;5100865;28;20031;-34
2024/01/15 11:25:19;;;;;;;3.92;2.03;;;2.70;99.90;;;;;;5101685;28;20024;-35
2024/01/15 11:27:51;;;;;;;4.60;2.35;;;2.80;99.90;;;;;;5101545;28;20031;-34
2024/01/15 11:30:17;;;;;;;5.65;2.20;;;2.90;99.90;;;;;;5099685;28;20436;-35
2024/01/15 11:32:43;;;;;;;4.32;2.20;;;3.00;99.90;;;;;;5100492;28;20558;-34
2024/01/15 11:35:14;;;;;;;7.18;2.10;;;3.00;99.90;;;;;;5100866;28;20027;-35
2024/01/15 11:37:55;;;;;;;3.60;1.98;;;3.00;99.90;;;;;;5100874;28;20107;-35
2024/01/15 11:40:22;;;;;;;4.78;2.40;;;3.00;99.90;;;;;;5101011;28;20392;-36
2024/01/15 11:42:49;;;;;;;5.20;2.50;;;3.00;99.90;;;;;;5099979;28;20030;-35
2024/01/15 11:45:19;;;;;;;4.75;2.67;;;2.90;99.90;;;;;;5100739;28;20096;-35
2024/01/15 11:47:54;;;;;;;8.40;2.58;;;2.90;99.90;;;;;;5100927;28;20055;-35
2024/01/15 11:50:21;;;;;;;6.78;2.17;;;2.90;99.90;;;;;;5100561;28;20035;-35
2024/01/15 11:52:59;;;;;;;5.50;1.70;;;2.90;99.90;;;;;;5101112;28;20051;-35
2024/01/15 11:55:36;;;;;;;5.82;1.83;;;3.00;99.90;;;;;;5101680;28;20011;-34
2024/01/15 11:58:05;;;;;;;3.33;1.73;;;2.90;99.90;;;;;;5100391;28;20028;-35
2024/01/15 12:00:31;;;;;;;8.25;2.13;;;2.90;99.90;;;;;;5101154;28;20127;-34
2024/01/15 12:02:59;;;;;;;4.28;1.52;;;2.90;99.90;;;;;;5100802;28;20023;-35
2024/01/15 12:05:24;;;;;;;3.60;1.30;;;2.90;99.90;;;;;;5100346;28;20034;-35
2024/01/15 12:07:50;;;;;;;1.85;1.27;;;2.90;99.90;;;;;;5100721;28;20020;-35
2024/01/15 12:10:20;;;;;;;3.70;1.30;;;2.90;99.90;;;;;;5100288;28;20047;-35
2024/01/15 12:13:04;;;;;;;3.33;1.55;;;3.00;99.90;;;;;;5096977;28;20036;-35
2024/01/15 12:15:31;;;;;;;8.15;1.67;;;3.00;99.90;;;;;;5100839;28;20032;-35
2024/01/15 12:17:59;;;;;;;4.93;1.73;;;3.00;99.90;;;;;;5099921;28;20148;-35
2024/01/15 12:20:26;;;;;;;4.93;1.80;;;3.10;99.90;;;;;;5101559;28;20019;-35
2024/01/15 12:22:52;;;;;;;5.97;1.90;;;3.10;99.90;;;;;;5099260;28;20023;-35
2024/01/15 12:25:17;;;;;;;4.57;1.52;;;3.20;99.90;;;;;;5098913;28;20423;-35
2024/01/15 12:27:43;;;;;;;5.97;1.27;;;3.30;99.90;;;;;;5101628;28;20028;-35
2024/01/15 12:30:13;;;;;;;6.35;1.35;;;3.40;99.90;;;;;;5099913;28;20899;-34
2024/01/15 12:32:41;;;;;;;4.53;1.30;;;3.60;99.90;;;;;;5099937;28;20060;-34
2024/01/15 12:35:08;;;;;;;3.60;1.23;;;3.70;99.90;;;;;;5081934;28;20085;-34
2024/01/15 12:37:38;;;;;;;9.13;1.60;;;3.80;99.90;;;;;;5100058;28;20024;-35
2024/01/15 12:40:06;;;;;;;5.95;1.42;;;3.80;99.90;;;;;;5098580;28;20054;-34
2024/01/15 12:42:39;;;;;;;4.00;1.20;;;3.80;99.90;;;;;;5100917;28;20024;-35
2024/01/15 12:45:09;;;;;;;;;;;3.80;99.90;;;;;;5100198;28;20741;-35
2024/01/15 12:47:35;;;;;;;6.35;1.52;;;3.70;99.90;;;;;;5099655;28;19957;-35
2024/01/15 12:50:01;;;;;;;4.72;1.20;;;3.70;99.90;;;;;;5100116;28;20482;-38
2024/01/15 12:52:30;;;;;;;2.42;0.90;;;3.70;99.90;;;;;;5100803;28;20020;-35
2024/01/15 12:54:56;;;;;;;3.45;0.80;;;3.70;99.90;;;;;;5099380;28;20744;-35